Terminal Aerodrome Forecast
Issued by NWS Columbia, SC

Home | Current Version | Previous Version | Text Only | Print | Product List | Glossary On
Versions: 1 2 3 4 5 6 7 8 9 10 11 12 13 14 15 16 17 18 19 20 21 22 23 24 25 26 27 28 29 30 31 32 33 34 35 36 37 38 39 40 41 42 43 44 45 46 47 48 49 50
000
FTAK31 PAJN 201100
TAFAGS
TAF
PAGS 201121Z 2012/2112 12007KT P6SM -SHRA OVC050
     FM201700 16009KT 6SM -SHRA BR SCT020 BKN030 OVC040
     FM210000 17007KT P6SM -SHRA SCT020 BKN035 OVC040
     FM210400 VRB04KT P6SM -SHRA BKN035 OVC040
     FM210700 VRB03KT 5SM BR VCSH FEW005 BKN050
      AMD NOT SKED=

USA.gov is the U.S. government's official web portal to all federal, state and local government web resources and services.